createdAt,value
2018-08-17T00:01:18.754Z,6.93
2018-08-17T00:03:46.334Z,6.70
2018-08-17T00:06:14.024Z,6.23
2018-08-17T00:08:41.707Z,6.50
2018-08-17T00:11:09.560Z,6.00
2018-08-17T00:13:37.102Z,7.53
2018-08-17T00:16:04.694Z,6.80
2018-08-17T00:18:32.254Z,6.53
2018-08-17T00:20:59.811Z,6.83
2018-08-17T00:23:27.356Z,6.30
2018-08-17T00:25:54.909Z,6.03
2018-08-17T00:28:22.469Z,6.57
2018-08-17T00:30:50.121Z,6.23
2018-08-17T00:33:17.714Z,6.53
2018-08-17T00:35:45.279Z,5.87
2018-08-17T00:38:12.829Z,6.30
2018-08-17T00:40:40.414Z,5.80
2018-08-17T00:43:07.941Z,6.70
2018-08-17T00:45:35.481Z,6.27
2018-08-17T00:48:03.119Z,6.70
2018-08-17T00:50:30.675Z,6.50
2018-08-17T00:52:58.298Z,6.57
2018-08-17T00:55:25.846Z,6.47
2018-08-17T00:57:53.373Z,6.83
2018-08-17T01:00:20.917Z,6.50
2018-08-17T01:02:48.442Z,7.33
2018-08-17T01:05:15.993Z,6.07
2018-08-17T01:07:43.537Z,6.80
2018-08-17T01:10:11.146Z,7.50
2018-08-17T01:12:38.733Z,7.50
2018-08-17T01:15:06.437Z,6.80
2018-08-17T01:17:34.028Z,6.90
2018-08-17T01:20:01.612Z,6.37
2018-08-17T01:22:29.150Z,7.00
2018-08-17T01:24:56.752Z,6.87
2018-08-17T01:27:24.271Z,7.73
2018-08-17T01:29:51.832Z,6.30
2018-08-17T01:32:19.409Z,6.30
2018-08-17T01:34:46.909Z,5.90
2018-08-17T01:37:14.443Z,6.20
2018-08-17T01:39:41.970Z,6.30
2018-08-17T01:42:09.464Z,6.00
2018-08-17T01:44:36.980Z,6.30
2018-08-17T01:47:04.596Z,6.07
2018-08-17T01:49:32.125Z,6.17
2018-08-17T01:51:59.648Z,6.60
2018-08-17T01:54:27.183Z,6.70
2018-08-17T01:56:54.708Z,6.70
2018-08-17T01:59:22.246Z,6.43
2018-08-17T02:01:49.774Z,6.40
2018-08-17T02:04:17.320Z,6.73
2018-08-17T02:06:44.877Z,6.87
2018-08-17T02:09:12.702Z,7.17
2018-08-17T02:11:40.638Z,6.77
2018-08-17T02:14:08.270Z,6.87
2018-08-17T02:16:35.841Z,7.17
2018-08-17T02:19:03.411Z,7.93
2018-08-17T02:21:30.942Z,6.80
2018-08-17T02:23:58.508Z,7.30
2018-08-17T02:26:26.088Z,6.93
2018-08-17T02:28:53.593Z,7.57
2018-08-17T02:31:21.205Z,8.53
2018-08-17T02:33:48.737Z,7.13
2018-08-17T02:36:16.289Z,7.77
2018-08-17T02:38:43.929Z,7.60
2018-08-17T02:41:11.455Z,6.90
2018-08-17T02:43:38.935Z,7.10
2018-08-17T02:46:06.440Z,6.00
2018-08-17T02:48:33.944Z,6.60
2018-08-17T02:51:01.481Z,6.30
2018-08-17T02:53:28.989Z,6.87
2018-08-17T02:55:56.528Z,6.73
2018-08-17T02:58:24.092Z,6.97
2018-08-17T03:00:51.621Z,6.80
2018-08-17T03:03:19.135Z,6.63
2018-08-17T03:05:46.693Z,7.10
2018-08-17T03:08:14.195Z,7.33
2018-08-17T03:10:41.765Z,6.83
2018-08-17T03:13:09.342Z,7.40
2018-08-17T03:15:36.828Z,7.37
2018-08-17T03:18:04.375Z,6.97
2018-08-17T03:20:31.941Z,8.20
2018-08-17T03:22:59.474Z,7.60
2018-08-17T03:25:26.975Z,7.80
2018-08-17T03:27:54.495Z,7.93
2018-08-17T03:30:22.051Z,8.37
2018-08-17T03:32:49.607Z,9.27
2018-08-17T03:35:17.139Z,8.63
2018-08-17T03:37:44.672Z,8.53
2018-08-17T03:40:12.218Z,8.30
2018-08-17T03:42:39.746Z,8.10
2018-08-17T03:45:07.330Z,8.23
2018-08-17T03:47:34.922Z,7.83
2018-08-17T03:50:02.500Z,7.17
2018-08-17T03:52:30.056Z,7.87
2018-08-17T03:54:57.586Z,7.70
2018-08-17T03:57:25.109Z,8.63
2018-08-17T03:59:52.680Z,7.27
2018-08-17T04:02:20.194Z,8.03
2018-08-17T04:04:47.702Z,7.10
2018-08-17T04:07:15.225Z,8.60
2018-08-17T04:09:42.873Z,7.73
2018-08-17T04:12:10.393Z,7.80
2018-08-17T04:14:37.869Z,6.63
2018-08-17T04:17:05.613Z,7.27
2018-08-17T04:19:33.165Z,7.43
2018-08-17T04:22:00.698Z,7.00
2018-08-17T04:24:28.198Z,7.80
2018-08-17T04:26:55.784Z,7.60
2018-08-17T04:29:23.338Z,7.57
2018-08-17T04:31:50.856Z,7.33
2018-08-17T04:34:18.390Z,6.90
2018-08-17T04:36:46.010Z,7.13
2018-08-17T04:39:13.560Z,6.93
2018-08-17T04:41:41.095Z,6.50
2018-08-17T04:44:08.607Z,6.80
2018-08-17T04:46:36.092Z,6.87
2018-08-17T04:49:03.688Z,7.23
2018-08-17T04:51:31.202Z,7.97
2018-08-17T04:53:58.711Z,7.90
2018-08-17T04:56:26.252Z,7.30
2018-08-17T04:58:53.785Z,7.83
2018-08-17T05:01:21.344Z,7.30
2018-08-17T05:03:48.886Z,7.50
2018-08-17T05:06:16.401Z,6.40
2018-08-17T05:08:43.916Z,7.80
2018-08-17T05:11:11.448Z,7.43
2018-08-17T05:13:38.970Z,7.40
2018-08-17T05:16:06.520Z,9.20
2018-08-17T05:18:34.060Z,8.00
2018-08-17T05:21:01.599Z,8.70
2018-08-17T05:23:29.085Z,8.10
2018-08-17T05:25:56.621Z,8.17
2018-08-17T05:28:24.155Z,8.10
2018-08-17T05:30:51.703Z,8.33
2018-08-17T05:33:19.274Z,8.20
2018-08-17T05:35:46.780Z,7.30
2018-08-17T05:38:14.305Z,8.20
2018-08-17T05:40:41.861Z,7.50
2018-08-17T05:43:09.366Z,8.63
2018-08-17T05:45:36.893Z,8.70
2018-08-17T05:48:04.744Z,8.63
2018-08-17T05:50:33.101Z,9.00
2018-08-17T05:53:00.936Z,8.93
2018-08-17T05:55:28.511Z,8.17
2018-08-17T05:57:56.093Z,9.60
2018-08-17T06:00:23.690Z,8.63
2018-08-17T06:02:51.263Z,9.50
2018-08-17T06:05:18.792Z,10.30
2018-08-17T06:07:46.364Z,10.10
2018-08-17T06:10:13.965Z,10.30
2018-08-17T06:12:41.535Z,11.10
2018-08-17T06:15:09.227Z,12.00
2018-08-17T06:17:36.880Z,11.70
2018-08-17T06:20:05.395Z,12.10
2018-08-17T06:22:32.953Z,13.00
2018-08-17T06:25:00.572Z,12.80
2018-08-17T06:27:28.173Z,12.90
2018-08-17T06:29:55.723Z,12.93
2018-08-17T06:32:23.322Z,12.83
2018-08-17T06:34:50.931Z,13.40
2018-08-17T06:37:18.814Z,12.97
2018-08-17T06:39:46.372Z,13.03
2018-08-17T06:42:13.873Z,13.43
2018-08-17T06:44:41.429Z,14.13
2018-08-17T06:47:09.126Z,14.10
2018-08-17T06:49:38.904Z,13.80
2018-08-17T06:52:06.532Z,12.93
2018-08-17T06:54:34.051Z,13.80
2018-08-17T06:57:01.645Z,13.80
2018-08-17T06:59:29.171Z,13.33
2018-08-17T07:01:56.736Z,13.23
2018-08-17T07:04:24.262Z,15.33
2018-08-17T07:06:51.800Z,15.17
2018-08-17T07:09:19.414Z,13.43
2018-08-17T07:11:46.894Z,14.57
2018-08-17T07:14:14.440Z,13.57
2018-08-17T07:16:42.055Z,15.60
2018-08-17T07:19:09.551Z,13.20
2018-08-17T07:21:37.204Z,14.10
2018-08-17T07:24:04.738Z,13.53
2018-08-17T07:26:32.252Z,13.93
2018-08-17T07:28:59.774Z,13.40
2018-08-17T07:31:28.044Z,13.40
2018-08-17T07:33:55.587Z,12.00
2018-08-17T07:36:23.169Z,13.03
2018-08-17T07:38:50.754Z,13.50
2018-08-17T07:41:18.232Z,13.90
2018-08-17T07:43:45.755Z,11.67
2018-08-17T07:46:13.465Z,12.80
2018-08-17T07:48:41.092Z,12.20
2018-08-17T07:51:08.879Z,11.57
2018-08-17T07:53:36.496Z,11.97
2018-08-17T07:56:04.040Z,13.00
2018-08-17T07:58:31.560Z,12.00
2018-08-17T08:00:59.086Z,12.20
2018-08-17T08:03:26.609Z,12.20
2018-08-17T08:05:54.154Z,11.13
2018-08-17T08:08:21.744Z,10.90
2018-08-17T08:10:49.296Z,10.20
2018-08-17T08:13:16.830Z,9.53
2018-08-17T08:15:45.152Z,10.97
2018-08-17T08:18:12.754Z,12.30
2018-08-17T08:20:42.520Z,12.60
2018-08-17T08:23:20.267Z,11.33
2018-08-17T08:25:47.808Z,9.20
2018-08-17T08:28:15.385Z,10.90
2018-08-17T08:30:43.025Z,9.67
2018-08-17T08:33:11.415Z,8.60
2018-08-17T08:35:39.074Z,11.20
2018-08-17T08:38:06.624Z,10.00
2018-08-17T08:40:34.179Z,8.37
2018-08-17T08:43:01.700Z,8.90
2018-08-17T08:45:29.380Z,9.80
2018-08-17T08:47:56.942Z,8.83
2018-08-17T08:50:24.520Z,8.00
2018-08-17T08:52:52.120Z,8.87
2018-08-17T08:55:19.950Z,7.30
2018-08-17T08:57:47.494Z,8.00
2018-08-17T09:00:15.071Z,8.33
2018-08-17T09:02:42.586Z,7.30
2018-08-17T09:05:10.121Z,6.17
2018-08-17T09:07:37.769Z,5.80
2018-08-17T09:10:07.006Z,5.80
2018-08-17T09:12:34.524Z,5.70
2018-08-17T09:15:02.120Z,5.40
2018-08-17T09:17:29.681Z,6.10
2018-08-17T09:19:57.216Z,5.83
2018-08-17T09:22:24.770Z,4.93
2018-08-17T09:24:52.313Z,5.70
2018-08-17T09:27:19.857Z,4.80
2018-08-17T09:29:47.374Z,4.50
2018-08-17T09:32:14.871Z,5.07
2018-08-17T09:34:42.399Z,5.13
2018-08-17T09:37:09.939Z,4.70
2018-08-17T09:39:37.503Z,4.53
2018-08-17T09:42:05.053Z,4.50
2018-08-17T09:44:32.643Z,4.90
2018-08-17T09:47:00.336Z,4.27
2018-08-17T09:49:27.897Z,4.33
2018-08-17T09:51:55.498Z,4.40
2018-08-17T09:54:23.007Z,4.90
2018-08-17T09:56:50.566Z,3.90
2018-08-17T09:59:18.069Z,3.87
2018-08-17T10:01:51.244Z,3.80
2018-08-17T10:04:24.455Z,4.27
2018-08-17T10:07:06.431Z,4.10
2018-08-17T10:09:39.695Z,4.60
2018-08-17T10:12:07.325Z,3.90
2018-08-17T10:14:34.906Z,3.30
2018-08-17T10:17:02.483Z,4.30
2018-08-17T10:19:30.057Z,4.03
2018-08-17T10:21:57.864Z,3.83
2018-08-17T10:24:25.329Z,3.80
2018-08-17T10:26:53.951Z,4.37
2018-08-17T10:29:22.067Z,4.00
2018-08-17T10:31:50.033Z,3.80
2018-08-17T10:34:17.877Z,4.27
2018-08-17T10:36:45.900Z,3.60
2018-08-17T10:39:13.513Z,4.40
2018-08-17T10:41:41.672Z,3.70
2018-08-17T10:44:09.898Z,3.77
2018-08-17T10:46:37.488Z,4.33
2018-08-17T10:49:05.603Z,3.50
2018-08-17T10:51:33.064Z,3.80
2018-08-17T10:54:00.573Z,3.60
2018-08-17T10:56:28.148Z,3.77
2018-08-17T10:58:55.716Z,3.03
2018-08-17T11:01:23.289Z,2.87
2018-08-17T11:03:51.240Z,3.50
2018-08-17T11:06:18.788Z,2.77
2018-08-17T11:08:46.389Z,3.10
2018-08-17T11:11:13.959Z,3.17
2018-08-17T11:13:41.520Z,3.07
2018-08-17T11:16:09.258Z,3.00
2018-08-17T11:18:36.846Z,3.30
2018-08-17T11:21:04.492Z,2.77
2018-08-17T11:23:32.039Z,3.20
2018-08-17T11:25:59.657Z,2.70
2018-08-17T11:28:27.233Z,3.17
2018-08-17T11:30:54.784Z,3.13
2018-08-17T11:33:25.096Z,2.90
2018-08-17T11:35:53.217Z,3.03
2018-08-17T11:38:21.059Z,2.77
2018-08-17T11:40:49.364Z,3.00
2018-08-17T11:43:17.148Z,2.80
2018-08-17T11:45:45.183Z,2.77
2018-08-17T11:48:21.713Z,3.27
2018-08-17T11:50:49.623Z,3.37
2018-08-17T11:53:17.215Z,3.40
2018-08-17T11:55:44.917Z,3.10
2018-08-17T11:58:12.487Z,3.00
2018-08-17T12:00:40.046Z,3.00
2018-08-17T12:03:08.200Z,2.63
2018-08-17T12:05:35.798Z,3.37
2018-08-17T12:08:03.516Z,3.40
2018-08-17T12:10:30.993Z,3.60
2018-08-17T12:13:03.179Z,3.07
2018-08-17T12:15:32.013Z,3.90
2018-08-17T12:17:59.528Z,3.50
2018-08-17T12:20:27.102Z,3.40
2018-08-17T12:22:54.651Z,3.43
2018-08-17T12:25:22.209Z,3.53
2018-08-17T12:27:58.293Z,3.23
2018-08-17T12:30:26.301Z,3.67
2018-08-17T12:32:53.889Z,3.50
2018-08-17T12:35:21.533Z,3.53
2018-08-17T12:37:57.649Z,4.00
2018-08-17T12:40:30.046Z,4.37
2018-08-17T12:42:57.677Z,3.40
2018-08-17T12:45:27.037Z,3.50
2018-08-17T12:47:54.632Z,3.97
2018-08-17T12:50:22.964Z,3.20
2018-08-17T12:52:50.477Z,3.67
2018-08-17T12:55:18.099Z,3.90
2018-08-17T12:57:45.652Z,4.13
2018-08-17T13:00:13.165Z,3.27
2018-08-17T13:02:40.755Z,3.20
2018-08-17T13:05:08.350Z,3.80
2018-08-17T13:07:35.986Z,3.70
2018-08-17T13:10:03.658Z,3.80
2018-08-17T13:12:31.217Z,3.20
2018-08-17T13:14:58.793Z,4.57
2018-08-17T13:17:31.860Z,4.53
2018-08-17T13:19:59.575Z,3.90
2018-08-17T13:22:27.204Z,4.20
2018-08-17T13:24:54.732Z,4.33
2018-08-17T13:27:22.284Z,4.87
2018-08-17T13:29:49.909Z,4.60
2018-08-17T13:32:17.428Z,3.90
2018-08-17T13:34:45.037Z,3.97
2018-08-17T13:37:12.562Z,5.70
2018-08-17T13:39:40.134Z,4.73
2018-08-17T13:42:07.833Z,4.20
2018-08-17T13:44:35.500Z,3.47
2018-08-17T13:47:03.202Z,3.53
2018-08-17T13:49:30.857Z,4.27
2018-08-17T13:51:58.479Z,3.03
2018-08-17T13:54:26.107Z,4.00
2018-08-17T13:56:53.784Z,3.83
2018-08-17T13:59:21.390Z,4.03
2018-08-17T14:01:48.972Z,3.93
2018-08-17T14:04:16.519Z,3.43
2018-08-17T14:06:44.165Z,3.53
2018-08-17T14:09:11.696Z,3.73
2018-08-17T14:11:39.327Z,4.20
2018-08-17T14:14:06.988Z,3.50
2018-08-17T14:16:34.584Z,3.90
2018-08-17T14:19:02.252Z,3.60
2018-08-17T14:21:29.821Z,3.73
2018-08-17T14:23:57.425Z,3.73
2018-08-17T14:26:24.999Z,4.00
2018-08-17T14:28:52.715Z,4.30
2018-08-17T14:31:20.329Z,3.97
2018-08-17T14:33:47.901Z,4.03
2018-08-17T14:36:15.562Z,4.00
2018-08-17T14:38:43.136Z,4.30
2018-08-17T14:41:10.755Z,3.87
2018-08-17T14:43:38.373Z,3.67
2018-08-17T14:46:05.965Z,3.43
2018-08-17T14:48:33.520Z,2.97
2018-08-17T14:51:01.077Z,3.70
2018-08-17T14:53:28.569Z,3.43
2018-08-17T14:55:56.178Z,4.10
2018-08-17T14:58:23.759Z,5.10
2018-08-17T15:00:51.342Z,4.20
2018-08-17T15:03:18.944Z,4.93
2018-08-17T15:05:46.568Z,4.57
2018-08-17T15:08:14.200Z,4.70
2018-08-17T15:10:41.739Z,4.33
2018-08-17T15:13:09.473Z,3.70
2018-08-17T15:15:37.038Z,3.30
2018-08-17T15:18:04.801Z,3.70
2018-08-17T15:20:32.412Z,4.07
2018-08-17T15:23:00.026Z,3.87
2018-08-17T15:25:27.566Z,3.77
2018-08-17T15:27:55.144Z,3.57
2018-08-17T15:30:22.733Z,3.00
2018-08-17T15:32:50.297Z,3.47
2018-08-17T15:35:17.909Z,3.13
2018-08-17T15:37:45.582Z,3.40
2018-08-17T15:40:13.170Z,4.63
2018-08-17T15:42:41.246Z,3.50
2018-08-17T15:45:09.507Z,3.53
2018-08-17T15:47:37.168Z,3.63
2018-08-17T15:50:20.471Z,3.53
2018-08-17T15:52:48.066Z,3.60
2018-08-17T15:55:15.664Z,3.43
2018-08-17T15:57:43.520Z,3.50
2018-08-17T16:00:13.980Z,4.10
2018-08-17T16:02:41.534Z,3.33
2018-08-17T16:05:09.170Z,3.60
2018-08-17T16:07:36.830Z,3.80
2018-08-17T16:10:05.219Z,3.37
2018-08-17T16:12:32.779Z,3.53
2018-08-17T16:15:00.459Z,3.43
2018-08-17T16:17:28.011Z,3.30
2018-08-17T16:19:55.584Z,3.27
2018-08-17T16:22:23.288Z,3.47
2018-08-17T16:24:50.949Z,3.33
2018-08-17T16:27:18.553Z,2.80
2018-08-17T16:29:46.215Z,4.00
2018-08-17T16:32:13.830Z,2.93
2018-08-17T16:34:41.510Z,2.90
2018-08-17T16:37:09.156Z,2.50
2018-08-17T16:39:43.573Z,2.17
2018-08-17T16:42:14.392Z,2.33
2018-08-17T16:44:41.995Z,1.83
2018-08-17T16:47:09.624Z,2.20
2018-08-17T16:49:37.203Z,1.87
2018-08-17T16:52:04.751Z,2.27
2018-08-17T16:54:32.373Z,2.20
2018-08-17T16:56:59.988Z,1.90
2018-08-17T16:59:27.577Z,2.00
2018-08-17T17:01:55.194Z,1.90
2018-08-17T17:04:22.752Z,2.00
2018-08-17T17:06:50.402Z,1.93
2018-08-17T17:09:18.031Z,1.87
2018-08-17T17:11:47.409Z,1.90
2018-08-17T17:14:15.313Z,2.50
2018-08-17T17:16:47.854Z,2.50
2018-08-17T17:19:17.713Z,2.30
2018-08-17T17:21:46.391Z,2.20
2018-08-17T17:24:14.119Z,2.67
2018-08-17T17:26:42.172Z,2.30
2018-08-17T17:29:09.920Z,2.53
2018-08-17T17:31:37.751Z,2.77
2018-08-17T17:34:06.022Z,2.70
2018-08-17T17:36:33.662Z,2.07
2018-08-17T17:39:01.318Z,2.30
2018-08-17T17:41:28.921Z,2.33
2018-08-17T17:43:56.511Z,2.20
2018-08-17T17:46:24.163Z,2.30
2018-08-17T17:48:51.987Z,1.93
2018-08-17T17:51:19.506Z,2.30
2018-08-17T17:53:47.128Z,2.10
2018-08-17T17:56:14.697Z,2.20
2018-08-17T17:58:42.304Z,1.90
2018-08-17T18:01:10.396Z,2.83
2018-08-17T18:03:42.116Z,1.80
2018-08-17T18:06:09.766Z,2.20
2018-08-17T18:08:37.360Z,2.03
2018-08-17T18:11:05.040Z,1.90
2018-08-17T18:13:32.617Z,1.87
2018-08-17T18:16:00.279Z,2.00
2018-08-17T18:18:27.902Z,2.17
2018-08-17T18:20:55.620Z,2.57
2018-08-17T18:23:23.253Z,2.67
2018-08-17T18:25:50.924Z,2.13
2018-08-17T18:28:18.865Z,2.30
2018-08-17T18:30:46.675Z,2.80
2018-08-17T18:33:14.285Z,2.40
2018-08-17T18:35:41.926Z,2.70
2018-08-17T18:38:10.061Z,3.00
2018-08-17T18:40:37.939Z,3.23
2018-08-17T18:43:05.586Z,3.30
2018-08-17T18:45:33.266Z,2.30
2018-08-17T18:48:00.933Z,3.07
2018-08-17T18:50:28.573Z,2.97
2018-08-17T18:52:56.800Z,2.70
2018-08-17T18:55:24.457Z,3.03
2018-08-17T18:57:52.145Z,3.00
2018-08-17T19:00:19.871Z,3.13
2018-08-17T19:02:47.973Z,3.40
2018-08-17T19:05:15.768Z,3.20
2018-08-17T19:07:43.436Z,3.40
2018-08-17T19:10:11.104Z,3.40
2018-08-17T19:12:38.868Z,3.70
2018-08-17T19:15:10.906Z,3.23
2018-08-17T19:17:38.804Z,3.63
2018-08-17T19:20:08.510Z,3.67
2018-08-17T19:22:37.787Z,3.47
2018-08-17T19:25:06.683Z,3.77
2018-08-17T19:27:35.686Z,4.20
2018-08-17T19:30:07.360Z,3.90
2018-08-17T19:32:35.082Z,3.27
2018-08-17T19:35:02.822Z,3.27
2018-08-17T19:37:30.627Z,3.70
2018-08-17T19:39:58.357Z,4.10
2018-08-17T19:42:26.113Z,4.50
2018-08-17T19:44:54.032Z,4.73
2018-08-17T19:47:22.012Z,4.20
2018-08-17T19:49:49.938Z,3.83
2018-08-17T19:52:17.667Z,4.07
2018-08-17T19:54:45.657Z,3.57
2018-08-17T19:57:13.649Z,4.27
2018-08-17T19:59:41.692Z,5.30
2018-08-17T20:02:10.239Z,4.13
2018-08-17T20:04:38.178Z,4.00
2018-08-17T20:07:05.926Z,3.87
2018-08-17T20:09:33.630Z,4.37
2018-08-17T20:12:01.477Z,4.23
2018-08-17T20:14:29.321Z,4.00
2018-08-17T20:16:56.873Z,4.10
2018-08-17T20:19:33.123Z,4.70
2018-08-17T20:22:00.953Z,4.33
2018-08-17T20:24:28.684Z,4.23
2018-08-17T20:26:56.424Z,4.30
2018-08-17T20:29:24.148Z,5.50
2018-08-17T20:31:51.851Z,5.73
2018-08-17T20:34:19.522Z,5.03
2018-08-17T20:36:47.327Z,5.20
2018-08-17T20:39:15.098Z,6.03
2018-08-17T20:41:42.947Z,5.90
2018-08-17T20:44:10.707Z,5.30
2018-08-17T20:46:38.495Z,4.83
2018-08-17T20:49:06.186Z,5.50
2018-08-17T20:51:35.300Z,5.17
2018-08-17T20:54:03.141Z,4.87
2018-08-17T20:56:30.789Z,5.77
2018-08-17T20:58:58.510Z,5.37
2018-08-17T21:01:26.194Z,5.30
2018-08-17T21:03:53.828Z,5.40
2018-08-17T21:06:21.619Z,7.03
2018-08-17T21:08:49.648Z,7.27
2018-08-17T21:11:17.363Z,6.10
2018-08-17T21:13:45.049Z,5.13
2018-08-17T21:16:12.648Z,5.40
2018-08-17T21:18:40.330Z,5.00
2018-08-17T21:21:07.989Z,5.90
2018-08-17T21:23:35.605Z,5.87
2018-08-17T21:26:03.218Z,6.13
2018-08-17T21:28:31.256Z,6.23
2018-08-17T21:30:58.875Z,5.90
2018-08-17T21:33:26.458Z,5.60
2018-08-17T21:35:54.352Z,6.23
2018-08-17T21:38:22.032Z,5.63
2018-08-17T21:40:49.646Z,5.67
2018-08-17T21:43:17.259Z,5.50
2018-08-17T21:45:44.815Z,5.67
2018-08-17T21:48:17.093Z,5.60
2018-08-17T21:50:44.862Z,6.13
2018-08-17T21:53:12.684Z,6.13
2018-08-17T21:55:40.330Z,7.10
2018-08-17T21:58:07.937Z,6.50
2018-08-17T22:00:35.524Z,7.80
2018-08-17T22:03:10.045Z,7.83
2018-08-17T22:05:39.089Z,9.50
2018-08-17T22:08:06.695Z,8.43
2018-08-17T22:10:34.268Z,9.00
2018-08-17T22:13:02.059Z,9.37
2018-08-17T22:15:30.382Z,9.17
2018-08-17T22:17:57.961Z,9.10
2018-08-17T22:20:25.619Z,9.43
2018-08-17T22:22:53.276Z,10.07
2018-08-17T22:25:20.855Z,11.60
2018-08-17T22:27:48.808Z,10.33
2018-08-17T22:30:19.317Z,10.30
2018-08-17T22:32:46.934Z,10.50
2018-08-17T22:35:14.575Z,9.43
2018-08-17T22:37:42.104Z,10.50
2018-08-17T22:40:09.662Z,9.40
2018-08-17T22:42:37.246Z,10.23
2018-08-17T22:45:04.899Z,10.07
2018-08-17T22:47:32.555Z,10.33
2018-08-17T22:50:00.723Z,10.40
2018-08-17T22:52:31.775Z,9.70
2018-08-17T22:55:01.588Z,9.70
2018-08-17T22:57:29.911Z,11.13
2018-08-17T23:00:10.008Z,10.73
2018-08-17T23:02:38.073Z,9.77
2018-08-17T23:05:07.713Z,10.60
2018-08-17T23:07:35.360Z,10.97
2018-08-17T23:10:03.112Z,9.80
2018-08-17T23:12:30.725Z,10.77
2018-08-17T23:14:58.265Z,10.77
2018-08-17T23:17:25.807Z,10.20
2018-08-17T23:19:53.365Z,11.50
2018-08-17T23:22:20.962Z,13.10
2018-08-17T23:24:48.513Z,10.60
2018-08-17T23:27:16.052Z,12.43
2018-08-17T23:29:43.576Z,11.50
2018-08-17T23:32:11.204Z,12.00
2018-08-17T23:34:38.710Z,11.40
2018-08-17T23:37:06.242Z,12.13
2018-08-17T23:39:33.812Z,12.40
2018-08-17T23:42:01.348Z,10.97
2018-08-17T23:44:28.911Z,12.47
2018-08-17T23:46:56.488Z,12.00
2018-08-17T23:49:24.057Z,12.30
2018-08-17T23:51:51.631Z,11.43
2018-08-17T23:54:19.177Z,12.27
2018-08-17T23:56:46.695Z,12.60
2018-08-17T23:59:14.243Z,12.53
